SWA4252 KSJC-KMDW
Flight info
| Callsign | SWA4252 |
|---|---|
| Flight time | N/A |
| Altitude | 35000 |
| Route | LOUPE1 SYRAH Q128 JSICA JNC/N0450F370 HLC WIDMA STJ KK60G IRK ENDEE8 |
| Aircraft | B738/M-SDE2E3FGHIRWXY/LB1 |
Departure
| Time | 2026-05-05 04:51 |
|---|---|
| Airport | Norman Y. Mineta San Jose International Airport (KSJC) |
Arrival
| Time | N/A |
|---|---|
| Airport | Chicago Midway International Airport (KMDW) |
| Time | Latitude | Longitude | Altitude | Speed | Heading |
|---|---|---|---|---|---|
| 2026-05-05 04:29 | 37.36621 | -121.92676 | 60 ft | 0 kts | 49° |
| 2026-05-05 04:42 | 37.36619 | -121.92678 | 60 ft | 3 kts | 49° |
| 2026-05-05 04:42 | 37.36602 | -121.92703 | 60 ft | 4 kts | 49° |
| 2026-05-05 04:42 | 37.36587 | -121.92723 | 60 ft | 4 kts | 53° |
| 2026-05-05 04:43 | 37.36580 | -121.92748 | 61 ft | 4 kts | 120° |
| 2026-05-05 04:43 | 37.36597 | -121.92770 | 61 ft | 4 kts | 139° |
| 2026-05-05 04:43 | 37.36603 | -121.92777 | 52 ft | 2 kts | 139° |
| 2026-05-05 04:46 | 37.36599 | -121.92773 | 54 ft | 2 kts | 139° |
| 2026-05-05 04:46 | 37.36574 | -121.92745 | 54 ft | 8 kts | 139° |
| 2026-05-05 04:46 | 37.36513 | -121.92696 | 55 ft | 12 kts | 184° |
| 2026-05-05 04:47 | 37.36432 | -121.92687 | 60 ft | 12 kts | 143° |
| 2026-05-05 04:47 | 37.36370 | -121.92618 | 57 ft | 13 kts | 138° |
| 2026-05-05 04:47 | 37.36291 | -121.92530 | 57 ft | 17 kts | 138° |
| 2026-05-05 04:47 | 37.36188 | -121.92420 | 58 ft | 21 kts | 140° |
| 2026-05-05 04:48 | 37.36074 | -121.92296 | 57 ft | 22 kts | 137° |
| 2026-05-05 04:48 | 37.35964 | -121.92172 | 55 ft | 21 kts | 138° |
| 2026-05-05 04:48 | 37.35856 | -121.92052 | 58 ft | 20 kts | 138° |
| 2026-05-05 04:48 | 37.35752 | -121.91936 | 59 ft | 20 kts | 140° |
| 2026-05-05 04:49 | 37.35647 | -121.91830 | 56 ft | 19 kts | 141° |
| 2026-05-05 04:49 | 37.35550 | -121.91720 | 60 ft | 18 kts | 137° |
| 2026-05-05 04:49 | 37.35455 | -121.91615 | 54 ft | 18 kts | 138° |
| 2026-05-05 04:49 | 37.35362 | -121.91516 | 53 ft | 17 kts | 139° |
| 2026-05-05 04:50 | 37.35263 | -121.91515 | 61 ft | 17 kts | 234° |
| 2026-05-05 04:50 | 37.35314 | -121.91623 | 60 ft | 16 kts | 319° |
| 2026-05-05 04:50 | 37.35526 | -121.91854 | 65 ft | 73 kts | 319° |
| 2026-05-05 04:50 | 37.36069 | -121.92449 | 60 ft | 132 kts | 319° |
| 2026-05-05 04:51 | 37.36890 | -121.93336 | 102 ft | 176 kts | 319° |
| 2026-05-05 04:51 | 37.37803 | -121.94353 | 939 ft | 165 kts | 319° |
| 2026-05-05 04:51 | 37.38671 | -121.95304 | 1681 ft | 171 kts | 316° |
| 2026-05-05 04:51 | 37.39650 | -121.96375 | 1950 ft | 199 kts | 316° |
| 2026-05-05 04:52 | 37.40870 | -121.97370 | 2135 ft | 224 kts | 342° |
| 2026-05-05 04:52 | 37.42462 | -121.97346 | 2576 ft | 239 kts | 14° |
| 2026-05-05 04:52 | 37.43871 | -121.96206 | 3156 ft | 247 kts | 48° |
| 2026-05-05 04:52 | 37.44599 | -121.94276 | 3800 ft | 247 kts | 82° |
| 2026-05-05 04:53 | 37.44367 | -121.92166 | 4334 ft | 247 kts | 119° |
| 2026-05-05 04:53 | 37.43316 | -121.90523 | 4955 ft | 242 kts | 136° |
| 2026-05-05 04:53 | 37.42126 | -121.89041 | 4954 ft | 239 kts | 138° |
| 2026-05-05 04:53 | 37.40949 | -121.87583 | 5016 ft | 239 kts | 137° |
| 2026-05-05 04:54 | 37.39756 | -121.86084 | 5437 ft | 246 kts | 136° |
| 2026-05-05 04:54 | 37.38557 | -121.84558 | 6245 ft | 243 kts | 135° |
| 2026-05-05 04:54 | 37.37365 | -121.83031 | 6949 ft | 247 kts | 135° |
| 2026-05-05 04:54 | 37.36160 | -121.81483 | 7636 ft | 249 kts | 134° |
| 2026-05-05 04:55 | 37.34922 | -121.79911 | 8173 ft | 259 kts | 136° |
| 2026-05-05 04:55 | 37.33316 | -121.78717 | 8392 ft | 281 kts | 166° |
| 2026-05-05 04:55 | 37.31351 | -121.78727 | 8946 ft | 288 kts | 195° |
| 2026-05-05 04:55 | 37.29572 | -121.79883 | 9593 ft | 292 kts | 222° |
| 2026-05-05 04:56 | 37.28348 | -121.81938 | 10098 ft | 300 kts | 249° |
| 2026-05-05 04:56 | 37.27917 | -121.84540 | 10319 ft | 316 kts | 273° |
| 2026-05-05 04:56 | 37.28417 | -121.87277 | 10483 ft | 331 kts | 298° |
| 2026-05-05 04:56 | 37.29857 | -121.89591 | 10624 ft | 347 kts | 324° |
| 2026-05-05 04:57 | 37.32004 | -121.91061 | 10929 ft | 357 kts | 338° |
| 2026-05-05 04:57 | 37.34142 | -121.92307 | 11454 ft | 362 kts | 335° |
| 2026-05-05 04:57 | 37.35063 | -121.92879 | 11734 ft | 363 kts | 336° |
| 2026-05-05 04:58 | 37.37408 | -121.94052 | 12416 ft | 364 kts | 345° |